Libertyville, Iowa
Current Conditions -  °F | °C
As of 10:15 AM on Thursday 27 Nov 2014 (Local Time) from KFFL Reporting Station
Clear Clear  
Wind Chill: -5°   Ceiling: Unl
Heat Index: 10°   Visibility: 10mi
Dew Point:   Wind: 13mph
Humidity: 67%   Direction: 290°WNW
Pressure: 30.52"   Gusts: 18mph
Location:  40.96°N, 92.05°W
Report Text: KFFL 271615Z AUTO 29011G16KT 10SM CLR M12/M17 A3052 RMK AO2
Loading
Personal Weather Stations






























Interactive Weather Map New forecast layout! Learn more

10-Day Weather Forecast

Advertisements
Track Severe Weather on mobile